Time;durP1;ratioP1;P1;durP2;ratioP2;P2;SDS_P1;SDS_P2;PMS_P1;PMS_P2;Temp;Humidity;BMP_temperature;BMP_pressure;BME280_temperature;BME280_humidity;BME280_pressure;Samples;Min_cycle;Max_cycle;Signal;HPM_P1;HPM_P2
2022/10/09 00:01:03;;;;;;;0.32;0.32;;;;;;;11.33;79.30;102547.16;2097741;28;20496;-67
2022/10/09 00:02:06;;;;;;;0.35;0.35;;;;;;;11.34;79.20;102543.34;2095509;28;20056;-68
2022/10/09 00:03:08;;;;;;;0.30;0.30;;;;;;;11.32;79.46;102534.75;2092896;28;20797;-68
2022/10/09 00:04:11;;;;;;;0.30;0.30;;;;;;;11.30;79.61;102539.66;2100303;28;20052;-68
2022/10/09 00:05:13;;;;;;;0.30;0.30;;;;;;;11.29;79.39;102544.25;2104658;28;20448;-68
2022/10/09 00:06:19;;;;;;;0.30;0.30;;;;;;;11.31;79.11;102546.66;2100541;28;20419;-67
2022/10/09 00:07:21;;;;;;;0.30;0.30;;;;;;;11.28;79.39;102542.66;2089724;28;20056;-68
2022/10/09 00:08:25;;;;;;;0.30;0.30;;;;;;;11.26;79.23;102544.84;2096434;28;20082;-67
2022/10/09 00:09:26;;;;;;;0.30;0.30;;;;;;;11.26;79.52;102552.16;2101220;28;20049;-68
2022/10/09 00:10:31;;;;;;;0.20;0.20;;;;;;;11.24;79.18;102546.28;2100216;28;20063;-68
2022/10/09 00:11:33;;;;;;;0.30;0.30;;;;;;;11.23;79.33;102548.16;2098249;28;20101;-68
2022/10/09 00:12:36;;;;;;;0.30;0.30;;;;;;;11.22;79.44;102545.78;2099751;28;20647;-68
2022/10/09 00:13:38;;;;;;;0.40;0.40;;;;;;;11.18;79.41;102542.88;2099273;28;20419;-68
2022/10/09 00:14:41;;;;;;;0.30;0.30;;;;;;;11.17;79.30;102551.28;2099139;28;20067;-68
2022/10/09 00:15:44;;;;;;;0.30;0.30;;;;;;;11.17;79.49;102548.59;2101937;28;20061;-69
2022/10/09 00:16:47;;;;;;;0.30;0.30;;;;;;;11.16;79.66;102545.06;2103691;28;20052;-68
2022/10/09 00:17:49;;;;;;;0.30;0.30;;;;;;;11.16;79.75;102550.47;2100116;28;20048;-68
2022/10/09 00:18:53;;;;;;;0.20;0.20;;;;;;;11.15;79.76;102548.06;2098118;28;20105;-68
2022/10/09 00:19:54;;;;;;;0.38;0.38;;;;;;;11.14;79.69;102558.09;2103769;28;20060;-69
2022/10/09 00:20:58;;;;;;;0.30;0.30;;;;;;;11.12;79.80;102548.69;2098553;28;20044;-68
2022/10/09 00:22:00;;;;;;;0.30;0.30;;;;;;;11.11;79.74;102553.31;2097383;28;20106;-68
2022/10/09 00:23:02;;;;;;;0.30;0.30;;;;;;;11.12;79.96;102554.09;2097546;28;20601;-69
2022/10/09 00:24:05;;;;;;;0.30;0.30;;;;;;;11.12;79.59;102548.69;2098536;28;20441;-69
2022/10/09 00:25:08;;;;;;;0.30;0.30;;;;;;;11.13;79.31;102561.13;2100500;28;20052;-69
2022/10/09 00:26:11;;;;;;;0.30;0.30;;;;;;;11.11;79.15;102560.59;2101801;28;20060;-68
2022/10/09 00:27:14;;;;;;;0.30;0.30;;;;;;;11.09;79.50;102557.41;2100614;28;20086;-68
2022/10/09 00:28:16;;;;;;;0.30;0.30;;;;;;;11.07;79.67;102554.22;2098483;28;20515;-68
2022/10/09 00:29:19;;;;;;;0.30;0.30;;;;;;;11.07;79.81;102563.09;2099172;28;20519;-68
2022/10/09 00:30:21;;;;;;;0.22;0.22;;;;;;;11.05;79.44;102559.91;2099807;28;20085;-69
2022/10/09 00:31:25;;;;;;;0.30;0.30;;;;;;;11.06;79.71;102560.69;2091933;28;20045;-67
2022/10/09 00:32:27;;;;;;;0.38;0.38;;;;;;;11.04;79.75;102555.59;2091518;28;20062;-67
2022/10/09 00:33:30;;;;;;;0.40;0.40;;;;;;;11.02;79.76;102559.72;2098494;28;20727;-69
2022/10/09 00:34:32;;;;;;;0.30;0.30;;;;;;;11.01;80.18;102558.91;2102418;28;20109;-69
2022/10/09 00:35:37;;;;;;;0.40;0.40;;;;;;;11.03;80.02;102553.19;2099981;28;20060;-68
2022/10/09 00:36:40;;;;;;;0.30;0.30;;;;;;;10.99;80.36;102555.69;2088299;28;20049;-69
2022/10/09 00:37:42;;;;;;;0.30;0.30;;;;;;;11.00;80.22;102556.50;2082829;28;20095;-67
2022/10/09 00:38:46;;;;;;;0.30;0.30;;;;;;;11.00;80.10;102565.44;2092492;28;20056;-68
2022/10/09 00:39:48;;;;;;;0.30;0.30;;;;;;;10.98;80.48;102556.81;2103249;28;20414;-68
2022/10/09 00:40:52;;;;;;;0.30;0.30;;;;;;;10.98;80.13;102564.91;2101798;28;20518;-68
2022/10/09 00:41:55;;;;;;;0.30;0.30;;;;;;;10.95;80.16;102559.31;2100525;28;20599;-69
2022/10/09 00:42:59;;;;;;;0.30;0.30;;;;;;;10.93;80.76;102566.91;2099348;28;20105;-69
2022/10/09 00:44:23;;;;;;;0.20;0.20;;;;;;;10.90;80.39;102559.41;2103897;28;20454;-68
2022/10/09 00:45:26;;;;;;;0.30;0.30;;;;;;;10.85;80.73;102557.59;2093656;28;20960;-68
2022/10/09 00:46:36;;;;;;;0.30;0.30;;;;;;;10.82;80.54;102558.22;2091546;28;20508;-68
2022/10/09 00:47:43;;;;;;;0.30;0.30;;;;;;;10.79;80.46;102563.41;2101399;28;20074;-67
2022/10/09 00:48:52;;;;;;;0.30;0.30;;;;;;;10.78;80.93;102559.13;2091688;28;20076;-68
2022/10/09 00:49:57;;;;;;;0.40;0.40;;;;;;;10.75;80.16;102565.91;2091334;28;20052;-67
2022/10/09 00:51:02;;;;;;;0.30;0.30;;;;;;;10.74;80.66;102563.50;2099236;28;20606;-68
2022/10/09 00:52:06;;;;;;;0.30;0.30;;;;;;;10.73;81.13;102568.13;2101894;28;20056;-68
2022/10/09 00:53:13;;;;;;;0.30;0.30;;;;;;;10.71;80.73;102566.81;2098613;28;20075;-66
2022/10/09 00:54:19;;;;;;;0.30;0.30;;;;;;;10.68;80.91;102570.09;2103319;28;20044;-69
2022/10/09 00:55:23;;;;;;;0.28;0.28;;;;;;;10.62;81.31;102566.72;2098627;28;20056;-68
2022/10/09 00:56:26;;;;;;;0.40;0.40;;;;;;;10.61;81.03;102559.69;2098503;28;20135;-68
2022/10/09 00:57:33;;;;;;;0.30;0.30;;;;;;;10.61;81.27;102556.22;2097186;28;20048;-69
2022/10/09 00:58:35;;;;;;;0.32;0.32;;;;;;;10.61;81.65;102558.91;2097482;28;20048;-69
2022/10/09 00:59:39;;;;;;;0.22;0.22;;;;;;;10.63;81.41;102567.50;2099539;28;20496;-67
2022/10/09 01:00:41;;;;;;;0.40;0.40;;;;;;;10.62;81.11;102563.19;2096055;28;20420;-68
2022/10/09 01:01:44;;;;;;;0.30;0.30;;;;;;;10.61;81.71;102558.91;2098091;28;20060;-68
2022/10/09 01:02:48;;;;;;;0.30;0.30;;;;;;;10.66;81.17;102575.81;2103597;28;20052;-71
2022/10/09 01:03:52;;;;;;;0.30;0.30;;;;;;;10.65;80.88;102570.69;2097465;28;20689;-69
2022/10/09 01:04:54;;;;;;;0.30;0.30;;;;;;;10.65;81.09;102576.91;2092586;28;20693;-69
2022/10/09 01:06:02;;;;;;;0.30;0.30;;;;;;;10.63;80.59;102575.59;2089572;28;20055;-68
2022/10/09 01:07:30;;;;;;;0.30;0.30;;;;;;;10.53;80.42;102569.28;2092363;28;20544;-68
2022/10/09 01:08:38;;;;;;;0.30;0.30;;;;;;;10.54;80.62;102576.28;2090563;28;20052;-68
2022/10/09 01:09:46;;;;;;;0.35;0.35;;;;;;;10.52;81.05;102573.09;2099590;28;20048;-68
2022/10/09 01:10:57;;;;;;;0.35;0.35;;;;;;;10.50;80.84;102575.28;2102037;28;21721;-68
2022/10/09 01:12:10;;;;;;;0.30;0.30;;;;;;;10.49;80.78;102579.09;2102831;28;20044;-68
2022/10/09 01:13:22;;;;;;;0.30;0.30;;;;;;;10.48;81.40;102572.06;2097097;28;20048;-68
2022/10/09 01:14:28;;;;;;;0.32;0.32;;;;;;;10.48;81.57;102571.28;2100614;28;20056;-68
2022/10/09 01:15:36;;;;;;;0.35;0.35;;;;;;;10.47;81.46;102575.88;2094230;28;20524;-68
2022/10/09 01:16:44;;;;;;;0.40;0.40;;;;;;;10.48;81.13;102576.69;2095487;28;20106;-68
2022/10/09 01:17:56;;;;;;;0.30;0.30;;;;;;;10.48;81.46;102576.69;2091184;28;20057;-68
2022/10/09 01:19:11;;;;;;;0.40;0.40;;;;;;;10.47;81.32;102577.78;2090075;28;20056;-68
2022/10/09 01:20:30;;;;;;;0.30;0.30;;;;;;;10.43;81.67;102572.16;2102002;28;20384;-68
2022/10/09 01:21:38;;;;;;;0.40;0.40;;;;;;;10.47;81.54;102577.78;2088365;28;20519;-68
2022/10/09 01:23:01;;;;;;;0.30;0.30;;;;;;;10.47;81.33;102573.19;2088716;28;20049;-69
2022/10/09 01:24:24;;;;;;;0.30;0.30;;;;;;;10.45;81.80;102575.38;2097876;28;20052;-68
2022/10/09 01:25:33;;;;;;;0.40;0.40;;;;;;;10.44;81.55;102578.38;2097707;28;20044;-68
2022/10/09 01:27:00;;;;;;;0.40;0.40;;;;;;;10.38;80.94;102577.69;2104769;28;20142;-69
2022/10/09 01:28:06;;;;;;;0.30;0.30;;;;;;;10.38;81.26;102566.06;2099581;28;20060;-69
2022/10/09 01:29:11;;;;;;;0.30;0.30;;;;;;;10.37;81.54;102581.44;2101249;28;20423;-66
2022/10/09 01:30:13;;;;;;;0.40;0.40;;;;;;;10.36;81.52;102566.34;2101298;28;20048;-70
2022/10/09 01:31:18;;;;;;;0.40;0.40;;;;;;;10.34;80.92;102567.75;2099285;28;20810;-69
2022/10/09 01:32:24;;;;;;;0.30;0.30;;;;;;;10.35;80.91;102563.97;2099000;28;20049;-69
2022/10/09 01:33:28;;;;;;;0.30;0.30;;;;;;;10.35;81.85;102566.66;2096908;28;20105;-68
2022/10/09 01:34:31;;;;;;;0.30;0.30;;;;;;;10.33;82.00;102564.25;2096821;28;20055;-67
2022/10/09 01:35:35;;;;;;;0.40;0.40;;;;;;;10.34;81.33;102560.44;2097981;28;20546;-68
2022/10/09 01:36:38;;;;;;;0.30;0.30;;;;;;;10.34;80.79;102568.53;2100551;28;20453;-68
2022/10/09 01:37:44;;;;;;;0.38;0.38;;;;;;;10.32;81.78;102561.84;2102831;28;20090;-69
2022/10/09 01:38:47;;;;;;;0.40;0.40;;;;;;;10.32;80.83;102561.84;2098743;28;20056;-69
2022/10/09 01:39:52;;;;;;;0.30;0.30;;;;;;;10.33;82.24;102563.44;2101228;28;20049;-68
2022/10/09 01:40:55;;;;;;;0.40;0.40;;;;;;;10.30;81.69;102561.34;2098241;28;20098;-69
2022/10/09 01:41:59;;;;;;;0.30;0.30;;;;;;;10.32;81.26;102557.22;2097963;28;20059;-68
2022/10/09 01:43:01;;;;;;;0.30;0.30;;;;;;;10.31;81.01;102563.75;2099720;28;20040;-68
2022/10/09 01:44:15;;;;;;;0.30;0.30;;;;;;;10.29;80.76;102565.16;2086923;28;20064;-68
2022/10/09 01:45:17;;;;;;;0.25;0.25;;;;;;;10.30;80.93;102561.34;2087993;28;20106;-68
2022/10/09 01:46:23;;;;;;;0.30;0.30;;;;;;;10.31;81.76;102566.44;2096883;28;20053;-67
2022/10/09 01:47:25;;;;;;;0.30;0.30;;;;;;;10.28;81.73;102560.81;2099664;28;20131;-68
2022/10/09 01:48:29;;;;;;;0.38;0.38;;;;;;;10.27;82.38;102553.84;2097341;28;20127;-68
2022/10/09 01:49:38;;;;;;;0.30;0.30;;;;;;;10.27;81.89;102551.94;2089803;28;20496;-68
2022/10/09 01:50:45;;;;;;;0.30;0.30;;;;;;;10.23;81.33;102548.22;2091111;28;20048;-68
2022/10/09 01:51:55;;;;;;;0.30;0.30;;;;;;;10.23;81.07;102550.13;2101045;28;20048;-68
2022/10/09 01:53:01;;;;;;;0.30;0.30;;;;;;;10.20;82.04;102546.13;2097938;28;20060;-68
2022/10/09 01:54:08;;;;;;;0.30;0.30;;;;;;;10.20;81.66;102546.13;2096756;28;20056;-68
2022/10/09 01:55:25;;;;;;;0.20;0.20;;;;;;;10.17;82.40;102560.22;2102129;28;20059;-69
2022/10/09 01:56:29;;;;;;;0.30;0.30;;;;;;;10.17;82.19;102533.22;2097134;28;20500;-69
2022/10/09 01:57:40;;;;;;;0.30;0.30;;;;;;;10.17;81.99;102543.22;2097135;28;20055;-68
2022/10/09 01:58:50;;;;;;;0.30;0.30;;;;;;;10.16;81.38;102553.19;2098908;28;20056;-68
2022/10/09 01:59:55;;;;;;;0.30;0.30;;;;;;;10.17;82.77;102549.41;2101633;28;20056;-68
2022/10/09 02:01:03;;;;;;;0.20;0.20;;;;;;;10.17;82.38;102538.63;2098995;28;20091;-68
2022/10/09 02:02:07;;;;;;;0.30;0.30;;;;;;;10.17;81.62;102538.63;2101918;28;20429;-68
2022/10/09 02:03:12;;;;;;;0.30;0.30;;;;;;;10.19;82.22;102536.44;2097531;28;20199;-69
2022/10/09 02:04:18;;;;;;;0.30;0.30;;;;;;;10.16;82.38;102531.59;2090277;28;20060;-67
2022/10/09 02:05:22;;;;;;;0.30;0.30;;;;;;;10.16;81.76;102531.59;2090827;28;20128;-67
2022/10/09 02:06:27;;;;;;;0.30;0.30;;;;;;;10.13;81.94;102543.00;2103829;28;20056;-67
2022/10/09 02:07:31;;;;;;;0.28;0.28;;;;;;;10.11;82.53;102533.59;2103473;28;20440;-68
2022/10/09 02:08:36;;;;;;;0.30;0.30;;;;;;;10.10;82.56;102532.78;2089809;28;20068;-68
2022/10/09 02:09:40;;;;;;;0.30;0.30;;;;;;;10.08;82.09;102534.19;2092369;28;20064;-68
2022/10/09 02:10:46;;;;;;;0.30;0.30;;;;;;;10.08;82.18;102536.91;2102138;28;20139;-68
2022/10/09 02:11:53;;;;;;;0.30;0.30;;;;;;;10.07;82.35;102536.09;2099313;28;20056;-69
2022/10/09 02:13:00;;;;;;;0.20;0.20;;;;;;;10.07;83.03;102532.53;2099781;28;20052;-69
2022/10/09 02:14:02;;;;;;;0.30;0.30;;;;;;;10.07;82.30;102541.47;2100078;28;20056;-68
2022/10/09 02:15:06;;;;;;;0.30;0.30;;;;;;;10.07;82.97;102541.47;2101210;28;20060;-69
2022/10/09 02:16:16;;;;;;;0.30;0.30;;;;;;;10.06;81.61;102542.56;2098587;28;20060;-68
2022/10/09 02:17:26;;;;;;;0.30;0.30;;;;;;;10.04;82.78;102539.34;2098764;28;20063;-68
2022/10/09 02:18:35;;;;;;;0.30;0.30;;;;;;;10.01;82.56;102545.34;2098513;28;20056;-68
2022/10/09 02:19:46;;;;;;;0.30;0.30;;;;;;;9.95;82.76;102541.13;2099160;28;20052;-69
2022/10/09 02:20:55;;;;;;;0.35;0.35;;;;;;;9.96;83.14;102542.72;2099471;28;20170;-69
2022/10/09 02:22:05;;;;;;;0.30;0.30;;;;;;;9.95;82.61;102535.72;2098503;28;20518;-68
2022/10/09 02:23:08;;;;;;;0.30;0.30;;;;;;;9.94;82.57;102536.81;2100309;28;20055;-69
2022/10/09 02:24:19;;;;;;;0.30;0.30;;;;;;;9.95;82.85;102530.31;2103655;28;20166;-68
2022/10/09 02:25:21;;;;;;;0.35;0.35;;;;;;;9.95;82.39;102535.72;2102196;28;20049;-68
2022/10/09 02:26:24;;;;;;;0.22;0.22;;;;;;;9.96;81.92;102537.31;2103982;28;20495;-69
2022/10/09 02:27:27;;;;;;;0.30;0.30;;;;;;;9.96;82.51;102525.72;2101334;28;20052;-69
2022/10/09 02:28:32;;;;;;;0.30;0.30;;;;;;;9.97;82.55;102538.13;2103847;28;20536;-69
2022/10/09 02:29:36;;;;;;;0.40;0.40;;;;;;;9.94;83.07;102539.50;2102532;28;20127;-69
2022/10/09 02:30:51;;;;;;;0.30;0.30;;;;;;;9.92;82.86;102530.91;2100336;28;20047;-67
2022/10/09 02:31:53;;;;;;;0.40;0.40;;;;;;;9.91;82.72;102533.91;2098177;28;20048;-68
2022/10/09 02:32:56;;;;;;;0.30;0.30;;;;;;;9.92;82.80;102530.91;2098970;28;20060;-69
2022/10/09 02:33:59;;;;;;;0.30;0.30;;;;;;;9.94;83.66;102527.94;2102411;28;20521;-68
2022/10/09 02:35:02;;;;;;;0.30;0.30;;;;;;;9.93;83.10;102535.22;2101312;28;20076;-68
2022/10/09 02:36:04;;;;;;;0.30;0.30;;;;;;;9.96;82.20;102537.31;2101166;28;20052;-68
2022/10/09 02:37:08;;;;;;;0.30;0.30;;;;;;;9.96;82.37;102537.31;2099603;28;20047;-68
2022/10/09 02:38:10;;;;;;;0.30;0.30;;;;;;;9.95;82.06;102533.03;2100187;28;20052;-68
2022/10/09 02:39:14;;;;;;;0.30;0.30;;;;;;;9.95;81.76;102535.72;2089376;28;20783;-69
2022/10/09 02:40:16;;;;;;;0.28;0.28;;;;;;;9.95;82.61;102535.72;2089164;28;20100;-67
2022/10/09 02:41:19;;;;;;;0.30;0.30;;;;;;;9.95;82.36;102538.41;2090853;28;20067;-69
2022/10/09 02:42:25;;;;;;;0.30;0.30;;;;;;;9.94;82.04;102538.72;2097948;28;20083;-72
2022/10/09 02:43:28;;;;;;;0.30;0.30;;;;;;;9.92;82.87;102536.31;2096333;28;20044;-71
2022/10/09 02:44:33;;;;;;;0.30;0.30;;;;;;;9.90;82.67;102527.72;2097305;28;20107;-72
2022/10/09 02:45:37;;;;;;;0.40;0.40;;;;;;;9.90;82.39;102533.09;2103023;28;20056;-72
2022/10/09 02:46:39;;;;;;;0.30;0.30;;;;;;;9.87;83.43;102531.00;2098635;28;20761;-72
2022/10/09 02:47:42;;;;;;;0.40;0.40;;;;;;;9.88;82.05;102529.88;2089136;28;20132;-71
2022/10/09 02:48:44;;;;;;;0.40;0.40;;;;;;;9.88;82.59;102532.59;2090082;28;20064;-72
2022/10/09 02:49:48;;;;;;;0.30;0.30;;;;;;;9.85;82.71;102527.78;2098055;28;20049;-72
2022/10/09 02:50:53;;;;;;;0.40;0.40;;;;;;;9.86;82.32;102525.91;2098292;28;20044;-72
2022/10/09 02:51:58;;;;;;;0.40;0.40;;;;;;;9.84;82.29;102523.50;2099627;28;20123;-72
2022/10/09 02:53:02;;;;;;;0.30;0.30;;;;;;;9.81;82.85;102529.47;2097998;28;20056;-72
2022/10/09 02:54:08;;;;;;;0.35;0.35;;;;;;;9.80;81.82;102530.56;2097844;28;20065;-71
2022/10/09 02:55:14;;;;;;;0.40;0.40;;;;;;;9.79;82.46;102530.84;2098116;28;20057;-71
2022/10/09 02:56:20;;;;;;;0.40;0.40;;;;;;;9.78;82.82;102524.69;2098257;28;20055;-69
2022/10/09 02:57:22;;;;;;;0.30;0.30;;;;;;;9.78;82.64;102531.97;2102316;28;20114;-68
2022/10/09 02:58:25;;;;;;;0.30;0.30;;;;;;;9.75;83.06;102525.25;2099374;28;20048;-68
2022/10/09 02:59:27;;;;;;;0.40;0.40;;;;;;;9.75;83.20;102527.16;2102653;28;20055;-69
2022/10/09 03:00:32;;;;;;;0.30;0.30;;;;;;;9.74;82.29;102522.84;2100316;28;20110;-69
2022/10/09 03:01:34;;;;;;;0.40;0.40;;;;;;;9.72;83.10;102520.44;2098092;28;20107;-69
2022/10/09 03:02:37;;;;;;;0.30;0.30;;;;;;;9.72;83.22;102520.44;2101156;28;20040;-68
2022/10/09 03:03:39;;;;;;;0.30;0.30;;;;;;;9.71;83.76;102523.44;2098217;28;20127;-70
2022/10/09 03:04:42;;;;;;;0.40;0.40;;;;;;;9.70;83.00;102522.66;2102328;28;20052;-68
2022/10/09 03:05:44;;;;;;;0.30;0.30;;;;;;;9.69;82.41;102521.03;2098285;28;20118;-70
2022/10/09 03:06:47;;;;;;;0.40;0.40;;;;;;;9.66;82.41;102523.50;2093896;28;20052;-69
2022/10/09 03:07:50;;;;;;;0.40;0.40;;;;;;;9.61;82.32;102513.59;2087168;28;20045;-68
2022/10/09 03:08:54;;;;;;;0.40;0.40;;;;;;;9.56;83.63;102521.75;2096023;28;20045;-68
2022/10/09 03:09:57;;;;;;;0.30;0.30;;;;;;;9.53;83.79;102522.34;2104705;28;20101;-69
2022/10/09 03:11:00;;;;;;;0.40;0.40;;;;;;;9.52;83.34;102531.53;2090255;28;20513;-69
2022/10/09 03:12:02;;;;;;;0.40;0.40;;;;;;;9.51;84.03;102524.56;2092811;28;20586;-68
2022/10/09 03:13:05;;;;;;;0.40;0.40;;;;;;;9.47;83.32;102522.69;2101225;28;20055;-69
2022/10/09 03:14:08;;;;;;;0.40;0.40;;;;;;;9.50;83.26;102525.63;2102890;28;20131;-69
2022/10/09 03:15:11;;;;;;;0.40;0.40;;;;;;;9.49;83.65;102528.63;2098598;28;20056;-68
2022/10/09 03:16:17;;;;;;;0.40;0.40;;;;;;;9.50;83.67;102532.94;2103097;28;20063;-68
2022/10/09 03:17:20;;;;;;;0.40;0.40;;;;;;;9.49;83.42;102528.63;2092885;28;20052;-68
2022/10/09 03:18:21;;;;;;;0.30;0.30;;;;;;;9.48;83.95;102535.88;2090978;28;20061;-68
2022/10/09 03:19:24;;;;;;;0.30;0.30;;;;;;;9.50;83.66;102532.94;2103434;28;20060;-68
2022/10/09 03:20:28;;;;;;;0.30;0.30;;;;;;;9.51;84.27;102531.81;2099030;28;20461;-68
2022/10/09 03:21:30;;;;;;;0.35;0.35;;;;;;;9.52;83.82;102531.53;2100305;28;20076;-69
2022/10/09 03:22:32;;;;;;;0.35;0.35;;;;;;;9.52;83.42;102526.13;2094258;28;20049;-68
2022/10/09 03:23:36;;;;;;;0.40;0.40;;;;;;;9.52;83.09;102531.53;2090955;28;20045;-68
2022/10/09 03:24:38;;;;;;;0.30;0.30;;;;;;;9.50;83.51;102531.00;2097867;28;20052;-68
2022/10/09 03:25:41;;;;;;;0.40;0.40;;;;;;;9.51;84.04;102540.72;2102629;28;20056;-70
2022/10/09 03:26:46;;;;;;;0.30;0.30;;;;;;;9.52;83.32;102534.22;2097725;28;20052;-69
2022/10/09 03:27:49;;;;;;;0.40;0.40;;;;;;;9.50;83.48;102539.09;2098874;28;20514;-69
2022/10/09 03:28:53;;;;;;;0.40;0.40;;;;;;;9.51;83.18;102537.22;2101890;28;20080;-69
2022/10/09 03:29:57;;;;;;;0.40;0.40;;;;;;;9.49;83.30;102537.50;2097928;28;20056;-69
2022/10/09 03:30:59;;;;;;;0.40;0.40;;;;;;;9.49;82.69;102537.50;2104225;28;20052;-69
2022/10/09 03:32:03;;;;;;;0.40;0.40;;;;;;;9.51;83.03;102539.91;2100651;28;20052;-69
2022/10/09 03:33:05;;;;;;;0.40;0.40;;;;;;;9.49;83.01;102542.09;2099260;28;20075;-70
2022/10/09 03:34:10;;;;;;;0.40;0.40;;;;;;;9.47;82.59;102541.56;2099161;28;20052;-68
2022/10/09 03:35:11;;;;;;;0.40;0.40;;;;;;;9.44;82.98;102534.88;2091003;28;20052;-68
2022/10/09 03:36:15;;;;;;;0.40;0.40;;;;;;;9.43;83.48;102530.59;2089509;28;20053;-69
2022/10/09 03:37:18;;;;;;;0.40;0.40;;;;;;;9.40;82.88;102533.88;2098857;28;20076;-68
2022/10/09 03:38:20;;;;;;;0.40;0.40;;;;;;;9.39;83.45;102531.47;2093659;28;20053;-67
2022/10/09 03:39:22;;;;;;;0.40;0.40;;;;;;;9.39;83.76;102529.56;2092933;28;20044;-68
2022/10/09 03:40:24;;;;;;;0.47;0.47;;;;;;;9.37;82.99;102534.44;2099107;28;20056;-68
2022/10/09 03:41:27;;;;;;;0.40;0.40;;;;;;;9.38;82.83;102536.06;2093743;28;20052;-68
2022/10/09 03:42:30;;;;;;;0.40;0.40;;;;;;;9.37;82.91;102531.72;2096682;28;20048;-68
2022/10/09 03:43:34;;;;;;;0.30;0.30;;;;;;;9.37;82.99;102530.94;2099352;28;20064;-69
2022/10/09 03:44:36;;;;;;;0.40;0.40;;;;;;;9.35;82.31;102539.34;2098610;28;20052;-68
2022/10/09 03:45:39;;;;;;;0.40;0.40;;;;;;;9.32;83.31;102531.81;2104117;28;20492;-68
2022/10/09 03:46:41;;;;;;;0.40;0.40;;;;;;;9.30;82.93;102534.00;2100344;28;20102;-68
2022/10/09 03:47:45;;;;;;;0.40;0.40;;;;;;;9.30;83.25;102531.31;2095254;28;20514;-67
2022/10/09 03:48:47;;;;;;;0.32;0.32;;;;;;;9.30;83.39;102530.50;2088000;28;20041;-69
2022/10/09 03:49:50;;;;;;;0.30;0.30;;;;;;;9.27;83.24;102534.59;2092004;28;20113;-69
2022/10/09 03:50:52;;;;;;;0.40;0.40;;;;;;;9.26;83.55;102532.19;2098027;28;20051;-66
2022/10/09 03:51:55;;;;;;;0.40;0.40;;;;;;;9.25;84.15;102530.56;2105265;28;20054;-67
2022/10/09 03:52:57;;;;;;;0.38;0.38;;;;;;;9.24;83.51;102529.78;2101358;28;20551;-68
2022/10/09 03:54:00;;;;;;;0.50;0.50;;;;;;;9.23;84.08;102525.47;2100694;28;20082;-68
2022/10/09 03:55:02;;;;;;;0.40;0.40;;;;;;;9.24;83.84;102524.38;2102093;28;20048;-68
2022/10/09 03:56:06;;;;;;;0.40;0.40;;;;;;;9.25;83.56;102528.69;2089121;28;20049;-69
2022/10/09 03:57:07;;;;;;;0.32;0.32;;;;;;;9.25;83.19;102523.28;2096122;28;20627;-69
2022/10/09 03:58:10;;;;;;;0.40;0.40;;;;;;;9.26;83.62;102532.19;2090138;28;20068;-69
2022/10/09 03:59:12;;;;;;;0.40;0.40;;;;;;;9.24;82.59;102529.78;2097721;28;20102;-69
2022/10/09 04:00:16;;;;;;;0.30;0.30;;;;;;;9.23;82.31;102535.47;2096127;28;20056;-69
2022/10/09 04:01:18;;;;;;;0.40;0.40;;;;;;;9.18;83.03;102536.31;2096165;28;20060;-69
2022/10/09 04:02:21;;;;;;;0.40;0.40;;;;;;;9.15;83.92;102525.31;2099002;28;20503;-68
2022/10/09 04:03:26;;;;;;;0.40;0.40;;;;;;;9.13;83.06;102524.81;2098148;28;20052;-68
2022/10/09 04:04:28;;;;;;;0.40;0.40;;;;;;;9.08;83.73;102522.97;2093220;28;20051;-69
2022/10/09 04:05:33;;;;;;;0.30;0.30;;;;;;;9.08;84.57;102533.75;2094411;28;20056;-68
2022/10/09 04:06:35;;;;;;;0.47;0.47;;;;;;;9.04;84.35;102525.44;2100216;28;20048;-69
2022/10/09 04:07:37;;;;;;;0.40;0.40;;;;;;;9.04;83.86;102521.94;2101063;28;20800;-68
2022/10/09 04:08:40;;;;;;;0.40;0.40;;;;;;;9.06;84.34;102525.16;2099935;28;20052;-68
2022/10/09 04:09:42;;;;;;;0.40;0.40;;;;;;;9.04;83.78;102524.63;2098601;28;20055;-68
2022/10/09 04:10:45;;;;;;;0.40;0.40;;;;;;;9.03;84.11;102528.44;2102418;28;20052;-68
2022/10/09 04:11:47;;;;;;;0.40;0.40;;;;;;;9.00;84.26;102535.22;2097408;28;20052;-69
2022/10/09 04:12:51;;;;;;;0.40;0.40;;;;;;;9.00;83.39;102535.22;2101541;28;20450;-69
2022/10/09 04:13:53;;;;;;;0.40;0.40;;;;;;;8.98;83.85;102528.50;2099705;28;20049;-68
2022/10/09 04:14:56;;;;;;;0.40;0.40;;;;;;;9.00;84.13;102539.78;2104611;28;20060;-69
2022/10/09 04:15:58;;;;;;;0.40;0.40;;;;;;;8.98;84.37;102533.88;2102423;28;20052;-68
2022/10/09 04:17:02;;;;;;;0.35;0.35;;;;;;;8.97;83.68;102537.66;2099086;28;20099;-69
2022/10/09 04:18:04;;;;;;;0.40;0.40;;;;;;;8.97;83.29;102534.97;2098672;28;20082;-68
2022/10/09 04:19:08;;;;;;;0.40;0.40;;;;;;;8.96;84.71;102538.75;2101716;28;20511;-68
2022/10/09 04:20:11;;;;;;;0.40;0.40;;;;;;;8.95;83.65;102537.97;2098131;28;20499;-68
2022/10/09 04:21:14;;;;;;;0.40;0.40;;;;;;;8.93;84.22;102533.94;2094596;28;20052;-68
2022/10/09 04:22:16;;;;;;;0.38;0.38;;;;;;;8.89;84.60;102533.72;2083810;28;20068;-68
2022/10/09 04:23:20;;;;;;;0.40;0.40;;;;;;;8.85;84.87;102534.56;2088735;28;20056;-68
2022/10/09 04:24:22;;;;;;;0.50;0.50;;;;;;;8.83;84.52;102534.84;2099028;28;20052;-67
2022/10/09 04:25:25;;;;;;;0.50;0.50;;;;;;;8.81;84.77;102536.25;2092327;28;20113;-68
2022/10/09 04:26:27;;;;;;;0.40;0.40;;;;;;;8.78;84.28;102536.81;2080531;28;20085;-68
2022/10/09 04:27:30;;;;;;;0.50;0.50;;;;;;;8.75;84.51;102534.69;2091120;28;20053;-69
2022/10/09 04:28:32;;;;;;;0.50;0.50;;;;;;;8.75;85.08;102542.78;2091707;28;20057;-68
2022/10/09 04:29:35;;;;;;;0.40;0.40;;;;;;;8.76;85.35;102536.28;2095795;28;20052;-69
2022/10/09 04:30:37;;;;;;;0.50;0.50;;;;;;;8.74;85.27;102533.09;2093276;28;20083;-69
2022/10/09 04:31:40;;;;;;;0.50;0.50;;;;;;;8.72;85.42;102532.59;2088420;28;20135;-69
2022/10/09 04:32:42;;;;;;;0.40;0.40;;;;;;;8.72;85.25;102535.28;2105194;28;20415;-67
2022/10/09 04:33:45;;;;;;;0.40;0.40;;;;;;;8.70;85.45;102529.38;2100175;28;20052;-67
2022/10/09 04:34:48;;;;;;;0.40;0.40;;;;;;;8.69;84.95;102533.13;2092762;28;20520;-67
2022/10/09 04:35:53;;;;;;;0.50;0.50;;;;;;;8.66;86.00;102529.13;2093445;28;20805;-69
2022/10/09 04:36:55;;;;;;;0.50;0.50;;;;;;;8.64;85.27;102523.22;2097465;28;20074;-69
2022/10/09 04:37:58;;;;;;;0.40;0.40;;;;;;;8.65;85.05;102526.72;2098409;28;20052;-68
2022/10/09 04:39:00;;;;;;;0.50;0.50;;;;;;;8.63;85.75;102523.50;2101338;28;20110;-68
2022/10/09 04:40:03;;;;;;;0.50;0.50;;;;;;;8.61;85.69;102525.72;2097296;28;20044;-68
2022/10/09 04:41:06;;;;;;;0.40;0.40;;;;;;;8.60;85.52;102518.69;2098617;28;20098;-68
2022/10/09 04:42:09;;;;;;;0.40;0.40;;;;;;;8.59;85.44;102522.50;2100723;28;20044;-68
2022/10/09 04:43:11;;;;;;;0.40;0.40;;;;;;;8.58;85.99;102518.19;2098614;28;20048;-68
2022/10/09 04:44:14;;;;;;;0.40;0.40;;;;;;;8.57;85.37;102521.97;2100615;28;20048;-68
2022/10/09 04:45:16;;;;;;;0.50;0.50;;;;;;;8.56;86.07;102515.00;2099704;28;20051;-68
2022/10/09 04:46:19;;;;;;;0.40;0.40;;;;;;;8.56;85.71;102517.69;2098379;28;20060;-69
2022/10/09 04:47:20;;;;;;;0.50;0.50;;;;;;;8.55;85.93;102516.06;2097173;28;20057;-68
2022/10/09 04:48:24;;;;;;;0.50;0.50;;;;;;;8.58;85.57;102516.31;2098865;28;20074;-68
2022/10/09 04:49:25;;;;;;;0.40;0.40;;;;;;;8.58;85.38;102521.69;2102897;28;20043;-68
2022/10/09 04:50:30;;;;;;;0.50;0.50;;;;;;;8.58;85.85;102528.94;2091548;28;20056;-68
2022/10/09 04:51:32;;;;;;;0.50;0.50;;;;;;;8.57;85.46;102519.28;2091665;28;20618;-69
2022/10/09 04:52:34;;;;;;;0.50;0.50;;;;;;;8.57;85.44;102520.09;2101537;28;20053;-67
2022/10/09 04:53:38;;;;;;;0.40;0.40;;;;;;;8.55;85.33;102516.88;2100021;28;20401;-68
2022/10/09 04:54:41;;;;;;;0.50;0.50;;;;;;;8.54;85.94;102523.34;2092252;28;20485;-68
2022/10/09 04:55:43;;;;;;;0.50;0.50;;;;;;;8.53;85.34;102526.34;2095479;28;20060;-67
2022/10/09 04:56:46;;;;;;;0.40;0.40;;;;;;;8.52;85.67;102525.53;2102761;28;20062;-67
2022/10/09 04:57:48;;;;;;;0.40;0.40;;;;;;;8.50;86.16;102524.22;2098792;28;20052;-67
2022/10/09 04:58:51;;;;;;;0.50;0.50;;;;;;;8.48;85.39;102524.47;2101728;28;20100;-68
2022/10/09 04:59:53;;;;;;;0.50;0.50;;;;;;;8.45;85.93;102516.19;2099031;28;20403;-67
2022/10/09 05:00:56;;;;;;;0.50;0.50;;;;;;;8.44;85.83;102525.34;2097845;28;20056;-67
2022/10/09 05:01:58;;;;;;;0.40;0.40;;;;;;;8.43;85.83;102527.25;2097672;28;20457;-68